createdAt,value
2023-01-19T00:01:41.072Z,99289.27
2023-01-19T00:05:08.669Z,99294.39
2023-01-19T00:08:36.305Z,99296.73
2023-01-19T00:12:03.350Z,99298.57
2023-01-19T00:15:30.310Z,99300.16
2023-01-19T00:18:57.654Z,99301.67
2023-01-19T00:22:24.632Z,99306.60
2023-01-19T00:25:51.795Z,99315.87
2023-01-19T00:29:20.359Z,99325.48
2023-01-19T00:32:47.569Z,99330.64
2023-01-19T00:36:14.711Z,99335.08
2023-01-19T00:39:41.967Z,99340.05
2023-01-19T00:43:09.006Z,99342.44
2023-01-19T00:46:36.059Z,99345.84
2023-01-19T00:50:03.226Z,99354.51
2023-01-19T00:53:32.658Z,99350.28
2023-01-19T00:56:58.039Z,99352.35
2023-01-19T01:00:26.281Z,99347.85
2023-01-19T01:03:54.268Z,99344.05
2023-01-19T01:07:21.421Z,99342.27
2023-01-19T01:10:48.497Z,99344.86
2023-01-19T01:14:16.060Z,99354.20
2023-01-19T01:17:48.251Z,99369.92
2023-01-19T01:21:15.532Z,99375.72
2023-01-19T01:24:42.611Z,99372.08
2023-01-19T01:28:11.118Z,99372.06
2023-01-19T01:31:38.606Z,99379.77
2023-01-19T01:35:06.140Z,99382.88
2023-01-19T01:38:33.180Z,99388.05
2023-01-19T01:42:00.093Z,99388.90
2023-01-19T01:45:35.066Z,99391.84
2023-01-19T01:49:05.747Z,99391.07
2023-01-19T01:52:37.951Z,99396.31
2023-01-19T01:56:08.628Z,99399.67
2023-01-19T01:59:39.425Z,99403.20
2023-01-19T02:03:06.956Z,99404.73
2023-01-19T02:06:34.957Z,99409.46
2023-01-19T02:10:20.112Z,99412.73
2023-01-19T02:13:48.358Z,99419.34
2023-01-19T02:17:15.777Z,99424.54
2023-01-19T02:20:46.545Z,99434.06
2023-01-19T02:24:14.547Z,99443.44
2023-01-19T02:27:41.557Z,99448.70
2023-01-19T02:31:08.655Z,99449.31
2023-01-19T02:34:36.238Z,99449.15
2023-01-19T02:38:05.022Z,99450.86
2023-01-19T02:41:39.450Z,99443.73
2023-01-19T02:45:09.609Z,99439.23
2023-01-19T02:48:36.952Z,99441.55
2023-01-19T02:52:04.388Z,99440.80
2023-01-19T02:55:33.893Z,99442.42
2023-01-19T02:59:07.304Z,99446.59
2023-01-19T03:02:46.307Z,99442.97
2023-01-19T03:06:25.404Z,99444.69
2023-01-19T03:10:00.200Z,99445.90
2023-01-19T03:13:35.212Z,99442.34
2023-01-19T03:17:07.047Z,99440.84
2023-01-19T03:20:35.048Z,99442.97
2023-01-19T03:24:08.008Z,99444.23
2023-01-19T03:27:40.952Z,99443.04
2023-01-19T03:31:13.851Z,99447.17
2023-01-19T03:34:43.258Z,99453.05
2023-01-19T03:38:15.955Z,99454.66
2023-01-19T03:41:44.713Z,99455.88
2023-01-19T03:45:13.596Z,99461.82
2023-01-19T03:48:42.329Z,99469.39
2023-01-19T03:52:09.701Z,99475.93
2023-01-19T03:55:38.258Z,99476.45
2023-01-19T03:59:06.252Z,99479.20
2023-01-19T04:02:33.662Z,99484.77
2023-01-19T04:06:00.739Z,99488.22
2023-01-19T04:09:27.883Z,99490.45
2023-01-19T04:13:00.830Z,99491.48
2023-01-19T04:16:29.070Z,99496.20
2023-01-19T04:19:55.999Z,99495.60
2023-01-19T04:23:22.934Z,99493.46
2023-01-19T04:26:51.939Z,99490.02
2023-01-19T04:30:19.719Z,99492.90
2023-01-19T04:33:46.609Z,99491.27
2023-01-19T04:37:14.227Z,99496.02
2023-01-19T04:40:41.151Z,99500.98
2023-01-19T04:44:08.417Z,99505.74
2023-01-19T04:47:35.331Z,99507.34
2023-01-19T04:51:02.324Z,99509.23
2023-01-19T04:54:29.296Z,99511.27
2023-01-19T04:57:56.258Z,99516.98
2023-01-19T05:01:23.596Z,99516.66
2023-01-19T05:04:51.168Z,99515.35
2023-01-19T05:08:18.116Z,99518.83
2023-01-19T05:11:45.470Z,99519.72
2023-01-19T05:15:14.153Z,99518.69
2023-01-19T05:18:41.932Z,99523.17
2023-01-19T05:22:09.628Z,99519.96
2023-01-19T05:25:38.232Z,99521.05
2023-01-19T05:29:05.602Z,99524.75
2023-01-19T05:32:32.618Z,99530.06
2023-01-19T05:35:59.578Z,99534.30
2023-01-19T05:39:26.853Z,99534.28
2023-01-19T05:42:54.007Z,99537.70
2023-01-19T05:46:21.055Z,99534.38
2023-01-19T05:49:47.997Z,99540.27
2023-01-19T05:53:15.049Z,99543.95
2023-01-19T05:56:42.093Z,99551.39
2023-01-19T06:00:11.607Z,99551.27
2023-01-19T06:03:41.098Z,99556.28
2023-01-19T06:07:09.228Z,99561.15
2023-01-19T06:10:36.472Z,99568.04
2023-01-19T06:14:03.441Z,99571.83
2023-01-19T06:17:30.517Z,99575.96
2023-01-19T06:20:59.640Z,99580.96
2023-01-19T06:24:26.567Z,99584.55
2023-01-19T06:27:53.563Z,99588.02
2023-01-19T06:31:20.563Z,99596.73
2023-01-19T06:34:47.718Z,99605.33
2023-01-19T06:38:15.598Z,99617.38
2023-01-19T06:41:43.159Z,99623.73
2023-01-19T06:45:12.560Z,99636.48
2023-01-19T06:48:39.538Z,99641.17
2023-01-19T06:52:06.757Z,99646.06
2023-01-19T06:55:35.739Z,99653.39
2023-01-19T06:59:03.295Z,99664.70
2023-01-19T07:02:30.481Z,99665.52
2023-01-19T07:05:58.302Z,99665.23
2023-01-19T07:09:25.902Z,99666.65
2023-01-19T07:12:53.418Z,99669.96
2023-01-19T07:16:20.883Z,99668.52
2023-01-19T07:19:48.854Z,99669.86
2023-01-19T07:23:16.345Z,99672.77
2023-01-19T07:26:43.523Z,99676.12
2023-01-19T07:30:12.556Z,99686.24
2023-01-19T07:33:39.495Z,99691.21
2023-01-19T07:37:06.428Z,99696.04
2023-01-19T07:40:33.898Z,99696.52
2023-01-19T07:44:00.836Z,99698.80
2023-01-19T07:47:27.911Z,99698.20
2023-01-19T07:50:54.827Z,99704.61
2023-01-19T07:54:21.907Z,99703.44
2023-01-19T07:57:52.011Z,99709.64
2023-01-19T08:01:19.369Z,99716.75
2023-01-19T08:04:49.064Z,99719.34
2023-01-19T08:08:16.090Z,99722.62
2023-01-19T08:11:42.999Z,99725.55
2023-01-19T08:15:11.818Z,99725.39
2023-01-19T08:18:38.863Z,99729.71
2023-01-19T08:22:05.963Z,99727.66
2023-01-19T08:25:37.879Z,99726.83
2023-01-19T08:29:06.849Z,99722.13
2023-01-19T08:32:33.802Z,99723.83
2023-01-19T08:36:00.936Z,99720.62
2023-01-19T08:39:28.474Z,99716.81
2023-01-19T08:43:00.960Z,99714.12
2023-01-19T08:46:28.347Z,99709.11
2023-01-19T08:49:55.273Z,99708.95
2023-01-19T08:53:23.875Z,99712.20
2023-01-19T08:56:51.004Z,99716.48
2023-01-19T09:00:19.885Z,99720.65
2023-01-19T09:03:47.001Z,99727.61
2023-01-19T09:07:14.174Z,99732.34
2023-01-19T09:10:45.806Z,99735.98
2023-01-19T09:14:13.004Z,99746.50
2023-01-19T09:17:40.408Z,99750.70
2023-01-19T09:21:08.455Z,99751.37
2023-01-19T09:24:36.857Z,99758.48
2023-01-19T09:28:04.120Z,99762.48
2023-01-19T09:31:31.316Z,99764.64
2023-01-19T09:34:58.429Z,99762.98
2023-01-19T09:38:25.961Z,99759.77
2023-01-19T09:42:03.634Z,99763.56
2023-01-19T09:45:39.470Z,99759.31
2023-01-19T09:49:13.943Z,99756.77
2023-01-19T09:52:49.421Z,99751.00
2023-01-19T09:56:19.375Z,99757.09
2023-01-19T09:59:51.056Z,99760.44
2023-01-19T10:03:20.875Z,99758.69
2023-01-19T10:06:48.726Z,99761.55
2023-01-19T10:10:23.534Z,99758.95
2023-01-19T10:13:54.215Z,99770.02
2023-01-19T10:17:32.285Z,99777.23
2023-01-19T10:21:05.653Z,99777.62
2023-01-19T10:24:39.664Z,99774.36
2023-01-19T10:28:06.907Z,99773.12
2023-01-19T10:31:37.356Z,99783.04
2023-01-19T10:35:21.715Z,99786.08
2023-01-19T10:38:49.881Z,99786.02
2023-01-19T10:42:18.867Z,99783.63
2023-01-19T10:45:52.319Z,99786.36
2023-01-19T10:49:31.400Z,99783.08
2023-01-19T10:53:01.257Z,99771.83
2023-01-19T10:56:31.941Z,99770.05
2023-01-19T10:59:59.749Z,99772.76
2023-01-19T11:03:29.623Z,99767.40
2023-01-19T11:07:14.631Z,99764.06
2023-01-19T11:10:41.781Z,99760.34
2023-01-19T11:14:14.984Z,99756.76
2023-01-19T11:17:48.446Z,99753.77
2023-01-19T11:21:17.957Z,99750.09
2023-01-19T11:24:46.125Z,99754.84
2023-01-19T11:28:21.736Z,99748.45
2023-01-19T11:31:49.421Z,99749.58
2023-01-19T11:35:37.846Z,99749.23
2023-01-19T11:39:24.807Z,99750.66
2023-01-19T11:42:52.156Z,99748.77
2023-01-19T11:46:20.277Z,99750.35
2023-01-19T11:49:52.405Z,99753.86
2023-01-19T11:53:24.427Z,99759.50
2023-01-19T11:56:53.243Z,99756.84
2023-01-19T12:00:29.056Z,99751.67
2023-01-19T12:04:02.808Z,99744.55
2023-01-19T12:07:44.778Z,99743.59
2023-01-19T12:11:30.120Z,99735.92
2023-01-19T12:15:03.272Z,99732.95
2023-01-19T12:18:35.099Z,99735.29
2023-01-19T12:22:03.180Z,99733.44
2023-01-19T12:25:37.589Z,99734.88
2023-01-19T12:29:12.777Z,99742.27
2023-01-19T12:32:39.802Z,99740.02
2023-01-19T12:36:11.194Z,99742.13
2023-01-19T12:39:50.618Z,99744.30
2023-01-19T12:43:17.913Z,99749.44
2023-01-19T12:46:47.087Z,99750.02
2023-01-19T12:50:23.304Z,99756.36
2023-01-19T12:53:56.113Z,99759.48
2023-01-19T12:57:28.159Z,99758.38
2023-01-19T13:01:16.191Z,99756.74
2023-01-19T13:05:03.531Z,99756.29
2023-01-19T13:09:01.994Z,99752.23
2023-01-19T13:12:29.509Z,99749.70
2023-01-19T13:15:58.300Z,99750.98
2023-01-19T13:19:36.197Z,99754.94
2023-01-19T13:23:24.646Z,99754.70
2023-01-19T13:27:03.293Z,99750.73
2023-01-19T13:30:35.489Z,99745.18
2023-01-19T13:34:05.512Z,99745.48
2023-01-19T13:37:39.203Z,99743.20
2023-01-19T13:41:07.011Z,99738.34
2023-01-19T13:44:39.577Z,99738.36
2023-01-19T13:48:09.784Z,99731.38
2023-01-19T13:51:36.872Z,99737.55
2023-01-19T13:55:05.546Z,99743.20
2023-01-19T13:58:33.154Z,99745.45
2023-01-19T14:02:14.609Z,99753.24
2023-01-19T14:05:44.037Z,99746.73
2023-01-19T14:09:20.482Z,99747.60
2023-01-19T14:12:59.090Z,99747.86
2023-01-19T14:16:26.985Z,99742.95
2023-01-19T14:19:55.557Z,99746.22
2023-01-19T14:23:40.792Z,99750.92
2023-01-19T14:27:19.262Z,99749.70
2023-01-19T14:30:57.941Z,99744.56
2023-01-19T14:34:37.082Z,99739.14
2023-01-19T14:38:04.866Z,99739.65
2023-01-19T14:41:39.066Z,99740.85
2023-01-19T14:45:17.388Z,99741.36
2023-01-19T14:48:51.881Z,99742.42
2023-01-19T14:52:27.840Z,99747.70
2023-01-19T14:55:59.192Z,99751.30
2023-01-19T14:59:26.397Z,99756.83
2023-01-19T15:02:53.352Z,99758.81
2023-01-19T15:06:23.162Z,99753.93
2023-01-19T15:09:51.304Z,99753.99
2023-01-19T15:13:21.908Z,99759.81
2023-01-19T15:16:50.426Z,99765.07
2023-01-19T15:20:22.465Z,99771.77
2023-01-19T15:23:49.529Z,99778.17
2023-01-19T15:27:16.819Z,99780.45
2023-01-19T15:30:43.823Z,99785.11
2023-01-19T15:34:14.685Z,99787.65
2023-01-19T15:37:41.902Z,99791.89
2023-01-19T15:41:14.435Z,99790.57
2023-01-19T15:44:41.474Z,99795.18
2023-01-19T15:48:10.539Z,99798.41
2023-01-19T15:51:38.863Z,99800.89
2023-01-19T15:55:07.035Z,99800.73
2023-01-19T15:58:34.291Z,99800.46
2023-01-19T16:02:01.441Z,99807.71
2023-01-19T16:05:42.019Z,99811.75
2023-01-19T16:09:12.244Z,99813.59
2023-01-19T16:12:37.953Z,99813.77
2023-01-19T16:16:13.760Z,99816.40
2023-01-19T16:19:40.951Z,99823.59
2023-01-19T16:23:15.982Z,99832.44
2023-01-19T16:26:43.260Z,99843.14
2023-01-19T16:30:14.839Z,99856.77
2023-01-19T16:33:41.945Z,99865.91
2023-01-19T16:37:08.930Z,99869.23
2023-01-19T16:40:36.106Z,99872.30
2023-01-19T16:44:03.454Z,99871.92
2023-01-19T16:47:31.103Z,99879.30
2023-01-19T16:51:06.984Z,99881.03
2023-01-19T16:54:34.637Z,99879.68
2023-01-19T16:58:01.848Z,99883.86
2023-01-19T17:01:30.542Z,99888.95
2023-01-19T17:05:00.184Z,99893.07
2023-01-19T17:08:27.631Z,99897.42
2023-01-19T17:11:58.216Z,99901.73
2023-01-19T17:15:25.677Z,99904.45
2023-01-19T17:18:53.929Z,99902.59
2023-01-19T17:22:21.492Z,99908.59
2023-01-19T17:25:55.398Z,99911.23
2023-01-19T17:29:22.613Z,99911.52
2023-01-19T17:32:50.230Z,99916.66
2023-01-19T17:36:21.150Z,99920.54
2023-01-19T17:39:48.593Z,99923.02
2023-01-19T17:43:15.691Z,99928.20
2023-01-19T17:46:42.836Z,99929.89
2023-01-19T17:50:11.630Z,99936.49
2023-01-19T17:53:41.389Z,99935.44
2023-01-19T17:57:08.349Z,99932.38
2023-01-19T18:00:35.509Z,99932.70
2023-01-19T18:04:02.657Z,99933.27
2023-01-19T18:07:30.083Z,99931.65
2023-01-19T18:10:58.234Z,99924.30
2023-01-19T18:14:25.158Z,99927.87
2023-01-19T18:17:52.273Z,99924.48
2023-01-19T18:21:21.777Z,99929.49
2023-01-19T18:24:49.229Z,99932.56
2023-01-19T18:28:16.394Z,99936.65
2023-01-19T18:31:43.861Z,99932.98
2023-01-19T18:35:12.005Z,99929.69
2023-01-19T18:38:39.440Z,99921.81
2023-01-19T18:42:06.659Z,99925.40
2023-01-19T18:45:33.878Z,99924.45
2023-01-19T18:49:01.036Z,99924.64
2023-01-19T18:52:28.074Z,99919.94
2023-01-19T18:55:57.538Z,99916.41
2023-01-19T18:59:23.364Z,99909.74
2023-01-19T19:02:50.688Z,99902.11
2023-01-19T19:06:20.834Z,99894.95
2023-01-19T19:09:48.609Z,99897.79
2023-01-19T19:13:17.269Z,99899.08
2023-01-19T19:16:44.876Z,99908.52
2023-01-19T19:20:14.590Z,99914.00
2023-01-19T19:23:42.370Z,99919.63
2023-01-19T19:27:13.949Z,99924.48
2023-01-19T19:30:41.504Z,99934.42
2023-01-19T19:34:09.445Z,99937.36
2023-01-19T19:37:37.295Z,99931.79
2023-01-19T19:41:09.269Z,99926.67
2023-01-19T19:44:36.384Z,99918.23
2023-01-19T19:48:04.246Z,99916.11
2023-01-19T19:51:31.974Z,99921.06
2023-01-19T19:55:00.039Z,99928.14
2023-01-19T19:58:30.624Z,99937.02
2023-01-19T20:01:59.895Z,99945.32
2023-01-19T20:05:26.511Z,99957.13
2023-01-19T20:08:56.940Z,99962.68
2023-01-19T20:12:25.392Z,99964.58
2023-01-19T20:15:54.338Z,99963.15
2023-01-19T20:19:22.028Z,99957.91
2023-01-19T20:22:50.053Z,99958.64
2023-01-19T20:26:20.156Z,99960.98
2023-01-19T20:29:51.923Z,99971.61
2023-01-19T20:33:19.587Z,99976.11
2023-01-19T20:36:49.915Z,99975.96
2023-01-19T20:40:18.269Z,99977.19
2023-01-19T20:43:46.109Z,99984.58
2023-01-19T20:47:13.723Z,99987.88
2023-01-19T20:50:40.792Z,99986.79
2023-01-19T20:54:08.113Z,99983.46
2023-01-19T20:57:35.719Z,99984.85
2023-01-19T21:01:10.129Z,99984.42
2023-01-19T21:04:37.911Z,99980.44
2023-01-19T21:08:06.965Z,99981.34
2023-01-19T21:11:33.247Z,99985.59
2023-01-19T21:15:01.063Z,99990.86
2023-01-19T21:18:29.514Z,99987.38
2023-01-19T21:21:57.641Z,99991.88
2023-01-19T21:25:25.515Z,99995.97
2023-01-19T21:28:53.003Z,99994.02
2023-01-19T21:32:21.402Z,100000.52
2023-01-19T21:35:55.737Z,100005.40
2023-01-19T21:39:23.620Z,100013.73
2023-01-19T21:42:51.151Z,100017.57
2023-01-19T21:46:21.827Z,100023.85
2023-01-19T21:49:49.156Z,100031.48
2023-01-19T21:53:16.239Z,100041.30
2023-01-19T21:56:44.322Z,100044.27
2023-01-19T22:00:13.406Z,100041.06
2023-01-19T22:03:40.925Z,100046.16
2023-01-19T22:07:08.023Z,100045.45
2023-01-19T22:10:38.837Z,100046.48
2023-01-19T22:14:06.079Z,100048.55
2023-01-19T22:17:33.285Z,100052.32
2023-01-19T22:21:10.219Z,100048.19
2023-01-19T22:24:37.252Z,100052.81
2023-01-19T22:28:04.295Z,100053.35
2023-01-19T22:31:32.632Z,100059.75
2023-01-19T22:34:59.723Z,100068.91
2023-01-19T22:38:27.252Z,100074.86
2023-01-19T22:41:54.191Z,100074.27
2023-01-19T22:45:21.938Z,100072.00
2023-01-19T22:48:49.674Z,100068.02
2023-01-19T22:52:16.706Z,100064.21
2023-01-19T22:55:43.638Z,100056.04
2023-01-19T22:59:10.915Z,100049.05
2023-01-19T23:02:37.944Z,100048.45
2023-01-19T23:06:08.041Z,100050.49
2023-01-19T23:09:35.606Z,100055.02
2023-01-19T23:13:02.532Z,100061.41
2023-01-19T23:16:29.595Z,100065.18
2023-01-19T23:19:56.617Z,100072.98
2023-01-19T23:23:23.881Z,100071.48
2023-01-19T23:26:52.156Z,100066.91
2023-01-19T23:30:20.423Z,100065.42
2023-01-19T23:33:47.572Z,100067.33
2023-01-19T23:37:15.729Z,100073.64
2023-01-19T23:40:42.801Z,100076.42
2023-01-19T23:44:09.906Z,100082.73
2023-01-19T23:47:37.847Z,100089.42
2023-01-19T23:51:10.298Z,100086.70
2023-01-19T23:54:37.674Z,100079.89
2023-01-19T23:58:04.603Z,100079.30
